Time;durP1;ratioP1;P1;durP2;ratioP2;P2;SDS_P1;SDS_P2;PMS_P1;PMS_P2;Temp;Humidity;BMP_temperature;BMP_pressure;BME280_temperature;BME280_humidity;BME280_pressure;Samples;Min_cycle;Max_cycle;Signal;HPM_P1;HPM_P2
2021/05/20 00:01:47;;;;;;;0.30;0.30;;;12.90;99.90;;;;;;4461308;32;20073;-65
2021/05/20 00:04:13;;;;;;;0.30;0.30;;;12.90;99.90;;;;;;4459945;32;20516;-64
2021/05/20 00:06:39;;;;;;;0.80;0.50;;;13.00;99.90;;;;;;4461151;32;20141;-64
2021/05/20 00:09:05;;;;;;;0.30;0.30;;;13.10;99.90;;;;;;4431196;32;20424;-64
2021/05/20 00:11:31;;;;;;;0.35;0.35;;;13.10;99.90;;;;;;4442403;32;20084;-64
2021/05/20 00:13:56;;;;;;;0.28;0.28;;;13.00;99.90;;;;;;4445121;32;20057;-64
2021/05/20 00:16:23;;;;;;;0.68;0.40;;;13.00;99.90;;;;;;4444587;32;20060;-64
2021/05/20 00:18:48;;;;;;;0.30;0.30;;;13.00;99.90;;;;;;4446396;32;20073;-64
2021/05/20 00:21:14;;;;;;;1.30;0.82;;;13.00;99.90;;;;;;4446217;32;20111;-64
2021/05/20 00:23:39;;;;;;;0.28;0.28;;;12.80;99.90;;;;;;4446183;32;20060;-64
2021/05/20 00:26:05;;;;;;;0.43;0.43;;;12.80;99.90;;;;;;4444290;32;20525;-65
2021/05/20 00:28:30;;;;;;;0.30;0.30;;;12.80;99.90;;;;;;4445502;32;20077;-65
2021/05/20 00:30:56;;;;;;;3.20;1.10;;;12.80;99.90;;;;;;4444829;32;20070;-64
2021/05/20 00:33:22;;;;;;;0.35;0.35;;;12.90;99.90;;;;;;4457883;32;20115;-65
2021/05/20 00:35:47;;;;;;;0.40;0.40;;;12.70;99.90;;;;;;4460427;32;20508;-65
2021/05/20 00:38:13;;;;;;;0.20;0.20;;;12.70;99.90;;;;;;4447130;32;20056;-65
2021/05/20 00:40:39;;;;;;;0.40;0.40;;;12.70;99.90;;;;;;4461081;32;20120;-64
2021/05/20 00:43:04;;;;;;;0.40;0.40;;;12.60;99.90;;;;;;4460382;32;20245;-64
2021/05/20 00:45:30;;;;;;;0.30;0.30;;;12.50;99.90;;;;;;4433449;32;20056;-64
2021/05/20 00:47:56;;;;;;;0.40;0.40;;;12.60;99.90;;;;;;4445201;32;20057;-63
2021/05/20 00:50:22;;;;;;;0.40;0.40;;;12.60;99.90;;;;;;4433930;32;20372;-64
2021/05/20 00:52:47;;;;;;;0.35;0.35;;;12.60;99.90;;;;;;4432664;32;20473;-64
2021/05/20 00:55:16;;;;;;;2.22;0.40;;;12.50;99.90;;;;;;4446816;32;20061;-64
2021/05/20 00:57:42;;;;;;;0.45;0.45;;;12.50;99.90;;;;;;4460528;32;20077;-64
2021/05/20 01:00:11;;;;;;;0.30;0.30;;;12.70;99.90;;;;;;4460855;32;20155;-63
2021/05/20 01:02:38;;;;;;;0.28;0.28;;;12.60;99.90;;;;;;4430954;32;20064;-64
2021/05/20 01:05:06;;;;;;;0.32;0.32;;;12.70;99.90;;;;;;4433361;32;20056;-64
2021/05/20 01:07:31;;;;;;;0.75;0.40;;;12.70;99.90;;;;;;4446708;32;20064;-64
2021/05/20 01:09:57;;;;;;;0.30;0.30;;;12.70;99.90;;;;;;4460626;32;20056;-63
2021/05/20 01:12:23;;;;;;;0.30;0.30;;;12.60;99.90;;;;;;4444514;32;20065;-64
2021/05/20 01:14:48;;;;;;;0.30;0.30;;;12.50;99.90;;;;;;4443732;32;20064;-64
2021/05/20 01:17:14;;;;;;;0.37;0.37;;;12.50;99.90;;;;;;4444164;32;20116;-64
2021/05/20 01:19:42;;;;;;;0.35;0.35;;;12.50;99.90;;;;;;4442762;32;20348;-64
2021/05/20 01:22:08;;;;;;;0.28;0.28;;;12.50;99.90;;;;;;4417670;32;20073;-64
2021/05/20 01:24:34;;;;;;;0.37;0.37;;;12.40;99.90;;;;;;4420236;32;20481;-64
2021/05/20 01:27:02;;;;;;;0.40;0.40;;;12.40;99.90;;;;;;4443803;32;20111;-64
2021/05/20 01:29:28;;;;;;;0.30;0.30;;;12.40;99.90;;;;;;4445321;32;20078;-64
2021/05/20 01:31:53;;;;;;;1.08;0.77;;;12.40;99.90;;;;;;4444835;32;20506;-64
2021/05/20 01:34:19;;;;;;;0.40;0.40;;;12.40;99.90;;;;;;4445137;32;20077;-64
2021/05/20 01:36:44;;;;;;;0.20;0.20;;;12.40;99.90;;;;;;4443401;32;20077;-63
2021/05/20 01:39:10;;;;;;;0.30;0.30;;;12.30;99.90;;;;;;4444885;32;20120;-64
2021/05/20 01:41:35;;;;;;;0.30;0.30;;;12.30;99.90;;;;;;4444246;32;20060;-64
2021/05/20 01:44:01;;;;;;;0.20;0.20;;;12.30;99.90;;;;;;4444670;32;20130;-64
2021/05/20 01:46:26;;;;;;;8.88;0.62;;;12.30;99.90;;;;;;4444327;32;20057;-63
2021/05/20 01:48:53;;;;;;;0.20;0.20;;;12.30;99.90;;;;;;4444841;32;20077;-64
2021/05/20 01:51:20;;;;;;;0.55;0.45;;;12.30;99.90;;;;;;4443727;32;20128;-64
2021/05/20 01:53:51;;;;;;;0.30;0.30;;;12.30;99.90;;;;;;4444014;32;20117;-64
2021/05/20 01:56:18;;;;;;;0.30;0.30;;;12.30;99.90;;;;;;4430069;32;20677;-63
2021/05/20 01:58:45;;;;;;;1.87;0.43;;;12.30;99.90;;;;;;4443992;32;20134;-64
2021/05/20 02:01:11;;;;;;;2.28;0.32;;;12.20;99.90;;;;;;4444942;32;20089;-64
2021/05/20 02:03:37;;;;;;;0.35;0.35;;;12.20;99.90;;;;;;4429949;32;20434;-63
2021/05/20 02:06:04;;;;;;;0.30;0.30;;;12.10;99.90;;;;;;4444039;32;20057;-64
2021/05/20 02:08:31;;;;;;;0.30;0.30;;;12.20;99.90;;;;;;4444108;32;20054;-64
2021/05/20 02:10:58;;;;;;;0.90;0.47;;;12.20;99.90;;;;;;4431474;32;20085;-64
2021/05/20 02:13:23;;;;;;;0.85;0.65;;;12.20;99.90;;;;;;4443103;32;20081;-64
2021/05/20 02:15:50;;;;;;;0.30;0.30;;;12.20;99.90;;;;;;4445784;32;20065;-63
2021/05/20 02:18:15;;;;;;;0.30;0.30;;;12.20;99.90;;;;;;4445099;32;20434;-64
2021/05/20 02:20:41;;;;;;;0.40;0.40;;;12.20;99.90;;;;;;4446123;32;20070;-64
2021/05/20 02:23:07;;;;;;;0.28;0.28;;;12.10;99.90;;;;;;4446280;32;20545;-64
2021/05/20 02:25:32;;;;;;;0.50;0.50;;;12.20;99.90;;;;;;4455016;32;20060;-64
2021/05/20 02:27:59;;;;;;;0.30;0.30;;;12.20;99.90;;;;;;4447239;32;20053;-64
2021/05/20 02:30:25;;;;;;;0.52;0.52;;;12.10;99.90;;;;;;4448182;32;20073;-63
2021/05/20 02:32:51;;;;;;;0.30;0.30;;;12.10;99.90;;;;;;4461938;32;20048;-64
2021/05/20 02:35:16;;;;;;;0.40;0.40;;;12.10;99.90;;;;;;4448836;32;20457;-64
2021/05/20 02:37:43;;;;;;;0.20;0.20;;;12.10;99.90;;;;;;4448221;32;20383;-64
2021/05/20 02:40:11;;;;;;;0.32;0.32;;;12.10;99.90;;;;;;4434943;32;20120;-64
2021/05/20 02:42:37;;;;;;;0.30;0.30;;;12.10;99.90;;;;;;4462558;32;20111;-64
2021/05/20 02:45:07;;;;;;;0.20;0.20;;;12.00;99.90;;;;;;4445167;32;20136;-64
2021/05/20 02:47:32;;;;;;;0.20;0.20;;;12.00;99.90;;;;;;4447643;32;20090;-64
2021/05/20 02:49:57;;;;;;;0.32;0.32;;;12.00;99.90;;;;;;4448369;32;20656;-64
2021/05/20 02:52:23;;;;;;;0.20;0.20;;;12.00;99.90;;;;;;4462112;32;20122;-64
2021/05/20 02:54:49;;;;;;;0.30;0.30;;;12.00;99.90;;;;;;4463004;32;20144;-64
2021/05/20 02:57:14;;;;;;;0.30;0.30;;;12.00;99.90;;;;;;4448907;32;20447;-64
2021/05/20 02:59:40;;;;;;;0.45;0.45;;;12.00;99.90;;;;;;4462068;32;20068;-64
2021/05/20 03:02:06;;;;;;;0.35;0.35;;;12.00;99.90;;;;;;4461337;32;20501;-64
2021/05/20 03:04:33;;;;;;;0.52;0.52;;;12.00;99.90;;;;;;4447685;32;20064;-63
2021/05/20 03:07:00;;;;;;;0.28;0.28;;;12.00;99.90;;;;;;4434924;32;20159;-64
2021/05/20 03:09:26;;;;;;;0.40;0.40;;;12.10;99.90;;;;;;4461975;32;20514;-64
2021/05/20 03:11:55;;;;;;;0.20;0.20;;;12.00;99.90;;;;;;4457171;32;20061;-63
2021/05/20 03:14:21;;;;;;;0.30;0.30;;;12.00;99.90;;;;;;4447505;32;20508;-64
2021/05/20 03:16:48;;;;;;;0.30;0.30;;;11.90;99.90;;;;;;4444984;32;20085;-63
2021/05/20 03:19:14;;;;;;;0.22;0.22;;;12.00;99.90;;;;;;4445666;32;20502;-64
2021/05/20 03:21:40;;;;;;;0.30;0.30;;;12.00;99.90;;;;;;4443222;32;20099;-64
2021/05/20 03:24:06;;;;;;;0.28;0.28;;;12.00;99.90;;;;;;4446274;32;20120;-64
2021/05/20 03:26:31;;;;;;;0.30;0.30;;;12.00;99.90;;;;;;4445750;32;20109;-64
2021/05/20 03:28:57;;;;;;;0.30;0.30;;;12.00;99.90;;;;;;4446742;32;20061;-62
2021/05/20 03:31:22;;;;;;;0.30;0.30;;;11.90;99.90;;;;;;4446307;32;20403;-64
2021/05/20 03:33:49;;;;;;;1.37;0.60;;;11.80;99.90;;;;;;4445831;32;20065;-64
2021/05/20 03:36:14;;;;;;;0.30;0.30;;;12.00;99.90;;;;;;4447083;32;20049;-64
2021/05/20 03:38:41;;;;;;;0.40;0.40;;;12.00;99.90;;;;;;4445277;32;20115;-64
2021/05/20 03:41:06;;;;;;;0.40;0.40;;;12.00;99.90;;;;;;4445480;32;20076;-64
2021/05/20 03:43:32;;;;;;;0.35;0.35;;;11.90;99.90;;;;;;4446250;32;20427;-64
2021/05/20 03:45:58;;;;;;;0.30;0.30;;;11.90;99.90;;;;;;4446324;32;20060;-64
2021/05/20 03:48:23;;;;;;;0.25;0.25;;;11.80;99.90;;;;;;4445486;32;20096;-63
2021/05/20 03:50:49;;;;;;;0.30;0.30;;;11.90;99.90;;;;;;4446175;32;20057;-64
2021/05/20 03:53:14;;;;;;;0.30;0.30;;;11.80;99.90;;;;;;4445015;32;20060;-64
2021/05/20 03:55:40;;;;;;;0.40;0.40;;;11.90;99.90;;;;;;4445743;32;20546;-63
2021/05/20 03:58:05;;;;;;;0.47;0.47;;;11.90;99.90;;;;;;4445473;32;20455;-63
2021/05/20 04:00:31;;;;;;;0.30;0.30;;;11.90;99.90;;;;;;4446416;32;20057;-64
2021/05/20 04:02:56;;;;;;;0.60;0.60;;;11.80;99.90;;;;;;4446289;32;20065;-64
2021/05/20 04:05:22;;;;;;;0.82;0.47;;;11.90;99.90;;;;;;4445600;32;20057;-64
2021/05/20 04:07:47;;;;;;;0.30;0.30;;;11.90;99.90;;;;;;4445394;32;20062;-64
2021/05/20 04:10:13;;;;;;;0.40;0.40;;;11.80;99.90;;;;;;4446251;32;20521;-64
2021/05/20 04:12:39;;;;;;;0.50;0.50;;;11.90;99.90;;;;;;4445894;32;20073;-64
2021/05/20 04:15:05;;;;;;;0.37;0.37;;;11.90;99.90;;;;;;4447833;32;20065;-64
2021/05/20 04:17:30;;;;;;;0.40;0.40;;;11.80;99.90;;;;;;4447134;32;20127;-64
2021/05/20 04:19:56;;;;;;;0.40;0.40;;;11.80;99.90;;;;;;4460519;32;20521;-64
2021/05/20 04:22:22;;;;;;;0.37;0.37;;;11.80;99.90;;;;;;4427548;32;20427;-64
2021/05/20 04:24:47;;;;;;;0.40;0.40;;;11.80;99.90;;;;;;4426764;32;20069;-64
2021/05/20 04:27:13;;;;;;;0.30;0.30;;;11.70;99.90;;;;;;4430057;32;20057;-63
2021/05/20 04:29:38;;;;;;;0.30;0.30;;;11.80;99.90;;;;;;4443985;32;20116;-64
2021/05/20 04:32:04;;;;;;;0.35;0.35;;;11.90;99.90;;;;;;4443087;32;20068;-64
2021/05/20 04:34:30;;;;;;;0.35;0.35;;;11.90;99.90;;;;;;4443796;32;20062;-64
2021/05/20 04:36:55;;;;;;;0.40;0.40;;;11.90;99.90;;;;;;4443501;32;20061;-64
2021/05/20 04:39:21;;;;;;;3.00;0.57;;;11.80;99.90;;;;;;4444915;32;20127;-64
2021/05/20 04:41:46;;;;;;;0.68;0.55;;;11.80;99.90;;;;;;4444458;32;20526;-64
2021/05/20 04:44:12;;;;;;;0.93;0.50;;;11.90;99.90;;;;;;4459362;32;20065;-64
2021/05/20 04:46:37;;;;;;;0.30;0.30;;;12.00;99.90;;;;;;4458549;32;20057;-63
2021/05/20 04:49:11;;;;;;;2.30;0.60;;;12.00;99.90;;;;;;4459409;32;20057;-64
2021/05/20 04:51:37;;;;;;;0.40;0.40;;;12.00;99.90;;;;;;4447385;32;20068;-63
2021/05/20 04:54:03;;;;;;;0.30;0.30;;;11.80;99.90;;;;;;4459476;32;20056;-63
2021/05/20 04:56:29;;;;;;;0.40;0.40;;;11.90;99.90;;;;;;4460584;32;20395;-64
2021/05/20 04:58:54;;;;;;;0.40;0.40;;;11.90;99.90;;;;;;4456892;32;20069;-65
2021/05/20 05:01:20;;;;;;;1.05;0.80;;;11.90;99.90;;;;;;4436277;32;20674;-64
2021/05/20 05:03:45;;;;;;;0.30;0.30;;;12.00;99.90;;;;;;4436515;32;20074;-64
2021/05/20 05:06:11;;;;;;;0.32;0.32;;;12.10;99.90;;;;;;4431587;32;20082;-63
2021/05/20 05:08:36;;;;;;;0.50;0.50;;;12.20;99.90;;;;;;4433831;32;20140;-64
2021/05/20 05:11:02;;;;;;;0.45;0.45;;;12.10;99.90;;;;;;4439000;32;20081;-64
2021/05/20 05:13:27;;;;;;;0.40;0.40;;;12.10;99.90;;;;;;4433566;32;20491;-62
2021/05/20 05:15:54;;;;;;;0.30;0.30;;;12.20;99.90;;;;;;4443978;32;20121;-63
2021/05/20 05:18:20;;;;;;;0.32;0.32;;;12.20;99.90;;;;;;4421684;32;20053;-63
2021/05/20 05:20:45;;;;;;;0.50;0.50;;;12.20;99.90;;;;;;4441894;32;20514;-63
2021/05/20 05:23:11;;;;;;;0.32;0.32;;;12.20;99.90;;;;;;4443805;32;20077;-63
2021/05/20 05:25:37;;;;;;;0.73;0.57;;;12.30;99.90;;;;;;4441154;32;20069;-63
2021/05/20 05:28:03;;;;;;;0.95;0.70;;;12.30;99.90;;;;;;4426082;32;20072;-63
2021/05/20 05:30:28;;;;;;;0.47;0.47;;;12.30;99.90;;;;;;4425905;32;20589;-64
2021/05/20 05:32:54;;;;;;;0.40;0.40;;;12.30;99.90;;;;;;4416578;32;20074;-64
2021/05/20 05:35:21;;;;;;;0.60;0.57;;;12.30;99.90;;;;;;4437986;32;20081;-64
2021/05/20 05:37:46;;;;;;;0.65;0.65;;;12.30;99.90;;;;;;4427242;32;20139;-64
2021/05/20 05:40:12;;;;;;;0.40;0.40;;;12.40;99.90;;;;;;4433695;32;20073;-63
2021/05/20 05:42:37;;;;;;;0.37;0.37;;;12.60;99.90;;;;;;4449403;32;20054;-64
2021/05/20 05:45:04;;;;;;;0.30;0.30;;;12.70;99.90;;;;;;4437594;32;20061;-64
2021/05/20 05:47:30;;;;;;;0.30;0.30;;;12.70;99.90;;;;;;4421678;32;20076;-64
2021/05/20 05:49:56;;;;;;;0.32;0.32;;;12.60;99.90;;;;;;4439471;32;20218;-65
2021/05/20 05:52:22;;;;;;;0.45;0.45;;;12.60;99.90;;;;;;4439129;32;20379;-64
2021/05/20 05:54:49;;;;;;;0.40;0.40;;;12.70;99.90;;;;;;4429864;32;20053;-64
2021/05/20 05:57:15;;;;;;;0.40;0.40;;;12.70;99.90;;;;;;4433072;32;20077;-64
2021/05/20 05:59:40;;;;;;;0.75;0.73;;;12.90;99.90;;;;;;4435634;32;20065;-64
2021/05/20 06:02:06;;;;;;;0.40;0.40;;;12.80;99.90;;;;;;4435762;32;20065;-63
2021/05/20 06:04:32;;;;;;;0.30;0.30;;;12.80;99.90;;;;;;4428816;32;20078;-63
2021/05/20 06:06:58;;;;;;;0.43;0.43;;;12.80;99.90;;;;;;4436248;32;20078;-64
2021/05/20 06:09:23;;;;;;;0.47;0.47;;;12.80;99.90;;;;;;4432878;32;20065;-64
2021/05/20 06:11:49;;;;;;;3.80;1.27;;;12.80;99.90;;;;;;4433878;32;20161;-64
2021/05/20 06:14:15;;;;;;;0.47;0.43;;;12.90;99.90;;;;;;4436811;32;20077;-64
2021/05/20 06:16:41;;;;;;;0.70;0.60;;;12.80;99.90;;;;;;4437123;32;20081;-64
2021/05/20 06:19:07;;;;;;;0.95;0.50;;;12.90;99.90;;;;;;4423990;32;20093;-64
2021/05/20 06:21:33;;;;;;;0.57;0.57;;;12.90;99.90;;;;;;4431880;32;20065;-64
2021/05/20 06:24:00;;;;;;;0.30;0.30;;;13.00;99.90;;;;;;4434843;32;20576;-64
2021/05/20 06:26:27;;;;;;;0.50;0.50;;;13.00;99.90;;;;;;4439917;32;20811;-64
2021/05/20 06:28:52;;;;;;;0.40;0.40;;;13.00;99.90;;;;;;4420873;32;20482;-64
2021/05/20 06:31:18;;;;;;;0.30;0.30;;;13.00;99.90;;;;;;4434585;32;20061;-64
2021/05/20 06:33:44;;;;;;;0.37;0.37;;;13.00;99.90;;;;;;4435837;32;20061;-64
2021/05/20 06:36:10;;;;;;;1.27;1.05;;;13.00;99.90;;;;;;4432137;32;20119;-64
2021/05/20 06:38:36;;;;;;;0.40;0.40;;;13.00;99.90;;;;;;4435525;32;20533;-63
2021/05/20 06:41:06;;;;;;;0.40;0.40;;;13.10;99.90;;;;;;4423012;32;20064;-64
2021/05/20 06:43:31;;;;;;;0.40;0.40;;;13.30;99.90;;;;;;4436783;32;20073;-65
2021/05/20 06:45:57;;;;;;;0.32;0.32;;;13.40;99.90;;;;;;4437862;32;20111;-66
2021/05/20 06:48:22;;;;;;;0.20;0.20;;;13.50;99.90;;;;;;4437794;32;20532;-64
2021/05/20 06:50:48;;;;;;;0.85;0.47;;;13.60;99.90;;;;;;4432960;32;20107;-63
2021/05/20 06:53:14;;;;;;;2.22;1.23;;;13.50;99.90;;;;;;4436935;32;20303;-63
2021/05/20 06:55:39;;;;;;;0.30;0.30;;;13.40;99.90;;;;;;4440453;32;20076;-63
2021/05/20 07:00:04;;;;;;;0.30;0.30;;;13.30;99.90;;;;;;4436121;32;20061;-64
2021/05/20 07:00:50;;;;;;;0.45;0.45;;;13.30;99.90;;;;;;4433667;32;20439;-63
2021/05/20 07:03:16;;;;;;;0.30;0.30;;;13.20;99.90;;;;;;4434699;32;20070;-64
2021/05/20 07:05:42;;;;;;;0.43;0.43;;;13.30;99.90;;;;;;4437869;32;20126;-64
2021/05/20 07:08:07;;;;;;;0.52;0.50;;;13.30;99.90;;;;;;4441321;32;20121;-64
2021/05/20 07:10:33;;;;;;;0.30;0.30;;;13.30;99.90;;;;;;4438763;32;20476;-64
2021/05/20 07:12:59;;;;;;;1.37;0.75;;;13.40;99.90;;;;;;4441696;32;20068;-64
2021/05/20 07:15:27;;;;;;;0.37;0.37;;;13.50;99.90;;;;;;4414199;32;20069;-64
2021/05/20 07:17:53;;;;;;;0.40;0.40;;;13.60;99.90;;;;;;4436075;32;20126;-63
2021/05/20 07:20:18;;;;;;;0.43;0.43;;;13.70;99.90;;;;;;4438938;32;20064;-64
2021/05/20 07:22:44;;;;;;;0.40;0.40;;;13.70;99.90;;;;;;4442168;32;20081;-66
2021/05/20 07:25:10;;;;;;;0.37;0.37;;;13.50;99.90;;;;;;4441927;32;20479;-65
2021/05/20 07:27:35;;;;;;;4.45;0.60;;;13.60;99.90;;;;;;4442843;32;20122;-65
2021/05/20 07:30:01;;;;;;;5.00;0.60;;;13.90;99.90;;;;;;4445644;32;20074;-65
2021/05/20 07:32:27;;;;;;;0.30;0.30;;;14.10;99.90;;;;;;4437268;32;20076;-65
2021/05/20 07:34:54;;;;;;;0.30;0.30;;;14.50;99.90;;;;;;4424018;32;20081;-65
2021/05/20 07:37:19;;;;;;;0.80;0.70;;;14.90;99.90;;;;;;4436886;32;20088;-64
2021/05/20 07:39:45;;;;;;;0.40;0.40;;;14.90;99.90;;;;;;4440580;32;20147;-65
2021/05/20 07:42:10;;;;;;;0.30;0.30;;;14.80;99.90;;;;;;4423880;32;20080;-65
2021/05/20 07:44:38;;;;;;;0.20;0.20;;;14.70;99.90;;;;;;4431495;32;20072;-64
2021/05/20 07:47:03;;;;;;;0.30;0.30;;;14.70;99.90;;;;;;4434388;32;20060;-64
2021/05/20 07:49:30;;;;;;;0.50;0.50;;;14.70;99.90;;;;;;4430870;32;20469;-64
2021/05/20 07:51:56;;;;;;;0.30;0.30;;;14.60;99.90;;;;;;4434746;32;20190;-64
2021/05/20 07:54:22;;;;;;;1.80;0.47;;;14.70;99.90;;;;;;4432219;32;20077;-65
2021/05/20 07:56:48;;;;;;;0.75;0.40;;;14.70;99.90;;;;;;4432599;32;20085;-65
2021/05/20 07:59:14;;;;;;;1.10;0.73;;;14.60;99.90;;;;;;4431381;32;20068;-65
2021/05/20 08:01:47;;;;;;;0.70;0.43;;;14.70;99.90;;;;;;4425773;32;20081;-65
2021/05/20 08:04:15;;;;;;;0.47;0.47;;;14.70;99.90;;;;;;4429857;32;20459;-65
2021/05/20 08:06:47;;;;;;;0.47;0.47;;;14.70;99.90;;;;;;4432753;32;20104;-64
2021/05/20 08:09:20;;;;;;;0.30;0.30;;;15.00;99.90;;;;;;4428326;32;20474;-65
2021/05/20 08:11:46;;;;;;;0.30;0.30;;;14.90;99.90;;;;;;4428185;32;20081;-64
2021/05/20 08:14:11;;;;;;;0.30;0.30;;;14.60;99.90;;;;;;4431131;32;20089;-65
2021/05/20 08:16:37;;;;;;;0.30;0.30;;;14.70;99.90;;;;;;4433268;32;20180;-65
2021/05/20 08:19:03;;;;;;;0.88;0.85;;;14.60;99.90;;;;;;4429985;32;20180;-64
2021/05/20 08:21:29;;;;;;;0.30;0.30;;;14.80;99.90;;;;;;4433027;32;20093;-64
2021/05/20 08:23:54;;;;;;;0.40;0.40;;;14.80;99.90;;;;;;4431072;32;20183;-64
2021/05/20 08:26:24;;;;;;;0.25;0.25;;;15.20;99.90;;;;;;4430974;32;20100;-64
2021/05/20 08:28:52;;;;;;;0.40;0.40;;;15.20;99.90;;;;;;4431074;32;20101;-65
2021/05/20 08:31:17;;;;;;;0.28;0.28;;;15.10;99.90;;;;;;4431701;32;20527;-65
2021/05/20 08:33:43;;;;;;;0.95;0.65;;;14.90;99.90;;;;;;4434650;32;20069;-65
2021/05/20 08:36:08;;;;;;;0.30;0.30;;;14.70;99.90;;;;;;4429552;32;20081;-65
2021/05/20 08:38:34;;;;;;;0.30;0.30;;;14.90;99.90;;;;;;4430766;32;20093;-65
2021/05/20 08:41:00;;;;;;;0.45;0.45;;;15.20;99.90;;;;;;4431138;32;20081;-64
2021/05/20 08:43:26;;;;;;;0.30;0.30;;;15.50;99.90;;;;;;4441919;32;20069;-65
2021/05/20 08:45:51;;;;;;;0.30;0.30;;;15.50;99.90;;;;;;4433710;32;20176;-66
2021/05/20 08:48:17;;;;;;;0.20;0.20;;;15.50;99.90;;;;;;4407973;32;20569;-65
2021/05/20 08:50:43;;;;;;;0.85;0.57;;;15.20;99.90;;;;;;4438833;32;20077;-63
2021/05/20 08:53:09;;;;;;;0.47;0.47;;;14.90;99.90;;;;;;4424874;32;20061;-63
2021/05/20 08:55:36;;;;;;;2.50;0.57;;;15.00;99.90;;;;;;4434716;32;20077;-63
2021/05/20 08:58:05;;;;;;;1.85;0.40;;;15.10;99.90;;;;;;4429615;32;20514;-63
2021/05/20 09:00:31;;;;;;;0.30;0.30;;;15.50;99.90;;;;;;4433169;32;20608;-64
2021/05/20 09:03:13;;;;;;;0.30;0.30;;;15.50;99.90;;;;;;4432873;32;20391;-64
2021/05/20 09:05:40;;;;;;;0.20;0.20;;;15.60;99.90;;;;;;4422116;32;20097;-64
2021/05/20 09:08:11;;;;;;;0.30;0.30;;;15.60;99.90;;;;;;4406959;32;20466;-64
2021/05/20 09:10:37;;;;;;;2.28;0.55;;;15.30;99.90;;;;;;4439706;32;20078;-64
2021/05/20 09:13:07;;;;;;;0.70;0.40;;;15.30;99.90;;;;;;4436150;32;20085;-63
2021/05/20 09:15:35;;;;;;;0.30;0.30;;;15.40;99.90;;;;;;4420259;32;20068;-64
2021/05/20 09:18:18;;;;;;;0.25;0.25;;;15.60;99.90;;;;;;4439289;32;20072;-63
2021/05/20 09:20:47;;;;;;;0.30;0.30;;;15.90;99.90;;;;;;4434250;32;20098;-65
2021/05/20 09:23:18;;;;;;;0.65;0.65;;;16.20;99.90;;;;;;4407902;32;20082;-64
2021/05/20 09:25:44;;;;;;;;;;;16.10;99.90;;;;;;4424492;32;20080;-64
2021/05/20 09:28:11;;;;;;;0.30;0.30;;;16.30;99.90;;;;;;4439484;32;19960;-64
2021/05/20 09:30:39;;;;;;;0.40;0.40;;;16.50;99.90;;;;;;4405166;32;20085;-63
2021/05/20 09:33:08;;;;;;;0.50;0.50;;;16.70;99.90;;;;;;4417497;32;20057;-64
2021/05/20 09:35:37;;;;;;;0.35;0.35;;;16.80;99.90;;;;;;4430500;32;20049;-64
2021/05/20 09:38:20;;;;;;;0.30;0.30;;;16.60;99.90;;;;;;4435608;32;20049;-63
2021/05/20 09:40:52;;;;;;;0.20;0.20;;;16.90;99.90;;;;;;4411395;32;73808;-63
2021/05/20 09:43:23;;;;;;;0.25;0.25;;;17.10;99.90;;;;;;4436155;32;20065;-64
2021/05/20 09:45:54;;;;;;;0.35;0.35;;;17.10;99.90;;;;;;4433980;32;20084;-63
2021/05/20 09:48:21;;;;;;;0.30;0.30;;;17.10;99.90;;;;;;4418862;32;20065;-63
2021/05/20 09:50:50;;;;;;;0.40;0.40;;;16.90;99.90;;;;;;4435582;32;20440;-64
2021/05/20 09:53:18;;;;;;;0.30;0.30;;;17.20;99.90;;;;;;4438775;32;20182;-64
2021/05/20 09:55:47;;;;;;;0.28;0.28;;;17.30;99.90;;;;;;4426958;32;20060;-64
2021/05/20 09:58:12;;;;;;;0.20;0.20;;;17.50;99.90;;;;;;4437827;32;20073;-64
2021/05/20 10:00:39;;;;;;;2.33;0.25;;;17.50;99.90;;;;;;4408848;32;20077;-63
2021/05/20 10:03:08;;;;;;;0.30;0.30;;;17.10;99.90;;;;;;4422337;32;20064;-64
2021/05/20 10:05:38;;;;;;;5.35;0.50;;;16.90;99.90;;;;;;4434121;32;20152;-63
2021/05/20 10:08:07;;;;;;;0.30;0.30;;;16.80;99.90;;;;;;4424496;32;20136;-64
2021/05/20 10:10:36;;;;;;;0.30;0.30;;;17.20;99.90;;;;;;4433389;32;20365;-65
2021/05/20 10:13:04;;;;;;;0.30;0.30;;;17.00;99.90;;;;;;4433472;32;20484;-64
2021/05/20 10:15:31;;;;;;;0.30;0.30;;;16.50;99.90;;;;;;4427012;32;20178;-64
2021/05/20 10:17:57;;;;;;;0.60;0.60;;;16.50;99.90;;;;;;4433571;32;20141;-63
2021/05/20 10:20:24;;;;;;;0.50;0.47;;;16.70;99.90;;;;;;4438315;32;20089;-65
2021/05/20 10:22:49;;;;;;;0.40;0.40;;;16.50;99.90;;;;;;4436722;32;20081;-65
2021/05/20 10:25:17;;;;;;;0.32;0.32;;;16.30;99.90;;;;;;4437505;32;20061;-64
2021/05/20 10:27:43;;;;;;;0.37;0.37;;;16.40;99.90;;;;;;4439230;32;20120;-65
2021/05/20 10:30:12;;;;;;;0.30;0.30;;;16.50;99.90;;;;;;4435436;32;20539;-64
2021/05/20 10:32:39;;;;;;;0.28;0.28;;;16.90;99.90;;;;;;4436973;32;20082;-65
2021/05/20 10:35:07;;;;;;;0.90;0.62;;;17.50;99.90;;;;;;4430446;32;20105;-63
2021/05/20 10:37:41;;;;;;;0.30;0.30;;;17.80;99.90;;;;;;4435827;32;20077;-63
2021/05/20 10:40:12;;;;;;;0.30;0.30;;;17.90;99.90;;;;;;4434583;32;20072;-62
2021/05/20 10:42:40;;;;;;;0.40;0.40;;;17.50;99.90;;;;;;4432501;32;20072;-63
2021/05/20 10:45:15;;;;;;;0.30;0.30;;;17.20;99.90;;;;;;4436171;32;20124;-64
2021/05/20 10:48:05;;;;;;;0.20;0.20;;;17.30;99.90;;;;;;4431309;32;20097;-63
2021/05/20 10:50:52;;;;;;;0.37;0.37;;;17.50;99.90;;;;;;4433318;32;20124;-64
2021/05/20 10:53:39;;;;;;;0.37;0.37;;;18.10;99.90;;;;;;4432101;32;20092;-63
2021/05/20 10:56:06;;;;;;;1.10;0.50;;;18.30;99.40;;;;;;4431348;32;20573;-64
2021/05/20 10:58:37;;;;;;;0.25;0.25;;;18.10;98.70;;;;;;4428320;32;21536;-64
2021/05/20 11:01:04;;;;;;;0.20;0.20;;;18.60;99.70;;;;;;4431618;32;20491;-64
2021/05/20 11:03:49;;;;;;;0.25;0.25;;;18.90;97.20;;;;;;4428845;32;20139;-64
2021/05/20 11:06:16;;;;;;;0.50;0.50;;;19.50;96.30;;;;;;4433145;32;20092;-64
2021/05/20 11:08:46;;;;;;;0.30;0.30;;;19.50;95.70;;;;;;4419803;32;20081;-64
2021/05/20 11:11:32;;;;;;;0.30;0.30;;;19.30;96.20;;;;;;4433095;32;20518;-64
2021/05/20 11:14:03;;;;;;;0.60;0.60;;;19.50;96.00;;;;;;4431325;32;20094;-64
2021/05/20 11:16:31;;;;;;;0.30;0.30;;;19.90;95.20;;;;;;4433158;32;20205;-65
2021/05/20 11:19:19;;;;;;;0.22;0.22;;;20.20;94.00;;;;;;4437055;32;20072;-64
2021/05/20 11:22:02;;;;;;;0.20;0.20;;;19.80;93.00;;;;;;4434127;32;20081;-64
2021/05/20 11:24:38;;;;;;;0.20;0.20;;;19.80;94.60;;;;;;4431392;32;20432;-64
2021/05/20 11:27:08;;;;;;;0.35;0.35;;;20.00;93.40;;;;;;4432852;32;20089;-65
2021/05/20 11:29:36;;;;;;;0.22;0.22;;;19.20;93.60;;;;;;4417815;32;20097;-65
2021/05/20 11:32:28;;;;;;;0.30;0.30;;;18.40;95.10;;;;;;4425682;32;20112;-63
2021/05/20 11:37:24;;;;;;;3.12;0.55;;;19.10;95.80;;;;;;4433176;32;20085;-64
2021/05/20 11:39:50;;;;;;;0.20;0.20;;;19.70;93.40;;;;;;4435966;32;20528;-64
2021/05/20 11:42:27;;;;;;;1.87;0.47;;;19.90;93.10;;;;;;4435222;32;20595;-64
2021/05/20 11:44:54;;;;;;;0.20;0.20;;;20.10;92.50;;;;;;4441476;32;20171;-64
2021/05/20 11:47:21;;;;;;;0.20;0.20;;;20.20;91.50;;;;;;4436123;32;20424;-64
2021/05/20 11:49:47;;;;;;;0.20;0.20;;;20.60;90.60;;;;;;4426846;32;20536;-63
2021/05/20 11:52:13;;;;;;;0.20;0.20;;;20.90;89.50;;;;;;4427206;32;20465;-64
2021/05/20 11:54:42;;;;;;;0.20;0.20;;;20.80;85.70;;;;;;4441779;32;20088;-64
2021/05/20 11:57:09;;;;;;;0.20;0.20;;;21.20;83.60;;;;;;4425754;32;20042;-64
2021/05/20 11:59:37;;;;;;;0.30;0.30;;;21.50;84.20;;;;;;4431375;32;20081;-64
2021/05/20 12:02:08;;;;;;;0.30;0.30;;;21.40;83.30;;;;;;4434755;32;20142;-63
2021/05/20 12:04:34;;;;;;;0.00;0.00;;;21.50;82.10;;;;;;4434727;32;20077;-63
2021/05/20 12:07:01;;;;;;;0.20;0.20;;;21.90;81.10;;;;;;4425651;32;20085;-64
2021/05/20 12:09:27;;;;;;;0.20;0.20;;;22.60;80.20;;;;;;4440676;32;20084;-63
2021/05/20 12:11:53;;;;;;;0.30;0.30;;;23.20;76.30;;;;;;4439292;32;20534;-64
2021/05/20 12:14:27;;;;;;;0.22;0.22;;;22.90;76.70;;;;;;4436855;32;20078;-63
2021/05/20 12:17:06;;;;;;;0.10;0.10;;;22.50;76.30;;;;;;4438954;32;20081;-63
2021/05/20 12:19:36;;;;;;;0.20;0.20;;;22.20;76.00;;;;;;4433613;32;20100;-63
2021/05/20 12:22:06;;;;;;;0.20;0.20;;;22.00;75.30;;;;;;4433895;32;20089;-63
2021/05/20 12:24:34;;;;;;;0.20;0.20;;;22.10;74.10;;;;;;4424330;32;20148;-63
2021/05/20 12:27:06;;;;;;;0.30;0.20;;;22.00;74.80;;;;;;4436833;32;20073;-63
2021/05/20 12:29:31;;;;;;;0.30;0.20;;;22.60;73.30;;;;;;4443760;32;20089;-63
2021/05/20 12:31:57;;;;;;;0.25;0.25;;;23.30;71.10;;;;;;4444830;32;20069;-62
2021/05/20 12:34:23;;;;;;;0.10;0.10;;;23.50;69.90;;;;;;4439315;32;20084;-63
2021/05/20 12:36:48;;;;;;;0.10;0.10;;;23.60;68.60;;;;;;4441100;32;20077;-63
2021/05/20 12:39:14;;;;;;;0.25;0.10;;;23.60;66.90;;;;;;4436989;32;20073;-63
2021/05/20 12:41:40;;;;;;;0.30;0.30;;;22.80;67.60;;;;;;4442823;32;20086;-63
2021/05/20 12:44:20;;;;;;;0.10;0.10;;;22.80;66.30;;;;;;4441749;32;20267;-62
2021/05/20 12:46:46;;;;;;;0.10;0.10;;;22.20;67.80;;;;;;4438250;32;20147;-63
2021/05/20 12:49:20;;;;;;;0.20;0.20;;;21.50;71.60;;;;;;4436068;32;20625;-62
2021/05/20 12:52:01;;;;;;;0.10;0.10;;;21.00;71.90;;;;;;4443387;32;20497;-62